Olib — 9AA6266 — position and weather

sailwx.info

Track history (hours):
 
Tides and Currents Weather Stations Pressure Air Temp Water Temp Dewpoint Dewpoint Depression Visibility Wind Speed Wind Dir Waves Ship Positions

Olib

Last reported at 2015-Jul-29 04:33 UTC. Time now 2015-Jul-29 04:53 UTC.
Position N 54°27' E 011°51'.

Length 247 m; draft 15 m.

Type: Tanker. MMSI: 238252000.

Date/timePositionNaut miles runAvg speedWind from/ knotsBaromVisibWave heightAir tempDewpointWater temp
2015-Jul-29 04:33N 54°27' E 011°51'76 8.4
2015-Jul-28 19:33N 55°01' E 013°48'1110.6
2015-Jul-28 18:33N 55°05' E 014°05'1111.0
2015-Jul-28 17:33N 55°13' E 014°17'1111.2
2015-Jul-28 16:33N 55°22' E 014°29'1110.6
2015-Jul-28 15:33N 55°29' E 014°43'1110.9
2015-Jul-28 14:33N 55°34' E 015°00'36610.1
2015-Jul-27 02:24N 59°39' E 023°29'  
2015-Jul-20 16:15N 55°31' E 015°06'911.8
2015-Jul-20 15:31N 55°27' E 014°52'10411.2
2015-Jul-20 06:14N 54°33' E 012°16'710.9
2015-Jul-20 05:34N 54°26' E 012°11'1212.0
2015-Jul-20 04:33N 54°25' E 011°51'1312.8
2015-Jul-20 03:33N 54°30' E 011°30'1212.1
2015-Jul-20 02:33N 54°35' E 011°11'111 9.3
2015-Jul-19 14:33N 56°26' E 011°10'31 9.9
2015-Jul-19 11:25N 56°48' E 011°51'2611.1
2015-Jul-19 09:08N 57°12' E 011°35'611.2
2015-Jul-19 08:33N 57°18' E 011°31'1111.1
2015-Jul-19 07:33N 57°28' E 011°23'1211.7
2015-Jul-19 06:33N 57°36' E 011°07'1211.5
2015-Jul-19 05:33N 57°44' E 010°51'  
Track history (hours):
 
Tides and Currents Weather Stations Pressure Air Temp Water Temp Dewpoint Dewpoint Depression Visibility Wind Speed Wind Dir Waves Ship Positions

Olib

Last reported at 2015-Jul-29 04:33 UTC. Time now 2015-Jul-29 04:53 UTC.
Position N 54°27' E 011°51'.

Length 247 m; draft 15 m.

Type: Tanker. MMSI: 238252000.

Date/timePositionNaut miles runAvg speedWind from/ knotsBaromVisibWave heightAir tempDewpointWater temp
2015-Jul-29 04:33N 54°27' E 011°51'76 8.4
2015-Jul-28 19:33N 55°01' E 013°48'1110.6
2015-Jul-28 18:33N 55°05' E 014°05'1111.0
2015-Jul-28 17:33N 55°13' E 014°17'1111.2
2015-Jul-28 16:33N 55°22' E 014°29'1110.6
2015-Jul-28 15:33N 55°29' E 014°43'1110.9
2015-Jul-28 14:33N 55°34' E 015°00'36610.1
2015-Jul-27 02:24N 59°39' E 023°29'  
2015-Jul-20 16:15N 55°31' E 015°06'911.8
2015-Jul-20 15:31N 55°27' E 014°52'10411.2
2015-Jul-20 06:14N 54°33' E 012°16'710.9
2015-Jul-20 05:34N 54°26' E 012°11'1212.0
2015-Jul-20 04:33N 54°25' E 011°51'1312.8
2015-Jul-20 03:33N 54°30' E 011°30'1212.1
2015-Jul-20 02:33N 54°35' E 011°11'111 9.3
2015-Jul-19 14:33N 56°26' E 011°10'31 9.9
2015-Jul-19 11:25N 56°48' E 011°51'2611.1
2015-Jul-19 09:08N 57°12' E 011°35'611.2
2015-Jul-19 08:33N 57°18' E 011°31'1111.1
2015-Jul-19 07:33N 57°28' E 011°23'1211.7
2015-Jul-19 06:33N 57°36' E 011°07'1211.5
2015-Jul-19 05:33N 57°44' E 010°51'  

Dump ship's entire track history